Time;durP1;ratioP1;P1;durP2;ratioP2;P2;SDS_P1;SDS_P2;PMS_P1;PMS_P2;Temp;Humidity;BMP_temperature;BMP_pressure;BME280_temperature;BME280_humidity;BME280_pressure;Samples;Min_cycle;Max_cycle;Signal;HPM_P1;HPM_P2
2022/05/06 00:00:21;;;;;;;23.52;21.73;;;5.70;99.90;;;;;;5002791;28;20058;-77
2022/05/06 00:02:47;;;;;;;22.15;20.55;;;5.60;99.90;;;;;;5001144;28;20092;-76
2022/05/06 00:05:14;;;;;;;22.30;20.70;;;5.60;99.90;;;;;;5002602;28;20077;-77
2022/05/06 00:07:41;;;;;;;22.02;20.42;;;5.50;99.90;;;;;;5003368;28;20084;-77
2022/05/06 00:10:10;;;;;;;22.00;20.50;;;5.60;99.90;;;;;;5001540;28;20092;-77
2022/05/06 00:12:37;;;;;;;21.77;20.23;;;5.50;99.90;;;;;;5005828;28;20045;-77
2022/05/06 00:15:06;;;;;;;21.75;20.15;;;5.40;99.90;;;;;;5021369;28;20123;-76
2022/05/06 00:17:33;;;;;;;21.15;19.83;;;5.50;99.90;;;;;;5021994;28;20053;-77
2022/05/06 00:20:00;;;;;;;21.02;19.63;;;5.60;99.90;;;;;;5020812;28;20041;-77
2022/05/06 00:22:27;;;;;;;21.83;20.13;;;5.60;99.90;;;;;;4983056;28;20054;-77
2022/05/06 00:24:53;;;;;;;21.55;20.17;;;5.60;99.90;;;;;;5005753;28;20547;-77
2022/05/06 00:27:21;;;;;;;21.70;20.10;;;5.60;99.90;;;;;;5001328;28;20105;-76
2022/05/06 00:29:48;;;;;;;21.98;20.02;;;5.60;99.90;;;;;;4986483;28;20061;-77
2022/05/06 00:32:16;;;;;;;21.23;19.83;;;5.70;99.90;;;;;;5002449;28;20143;-77
2022/05/06 00:34:42;;;;;;;20.42;18.92;;;5.70;99.90;;;;;;5002709;28;20080;-76
2022/05/06 00:37:09;;;;;;;21.80;19.92;;;5.70;99.90;;;;;;5000704;28;20858;-75
2022/05/06 00:39:36;;;;;;;20.83;19.33;;;5.60;99.90;;;;;;4989343;28;20049;-77
2022/05/06 00:42:02;;;;;;;20.42;18.95;;;5.40;99.90;;;;;;5002797;28;20679;-77
2022/05/06 00:44:31;;;;;;;20.70;19.17;;;5.30;99.90;;;;;;5013754;28;20052;-77
2022/05/06 00:46:58;;;;;;;19.67;18.17;;;5.40;99.90;;;;;;5021374;28;20053;-77
2022/05/06 00:49:25;;;;;;;20.60;19.10;;;5.40;99.90;;;;;;5019655;28;20053;-77
2022/05/06 00:51:53;;;;;;;20.85;19.45;;;5.20;99.90;;;;;;4983706;28;20060;-77
2022/05/06 00:54:23;;;;;;;20.95;19.50;;;5.20;99.90;;;;;;5000748;28;20054;-76
2022/05/06 00:56:52;;;;;;;21.70;20.15;;;5.10;99.90;;;;;;5002000;28;20134;-77
2022/05/06 00:59:19;;;;;;;21.90;20.08;;;5.20;99.90;;;;;;4985152;28;20150;-76
2022/05/06 01:01:46;;;;;;;20.70;18.98;;;5.20;99.90;;;;;;4997019;28;20099;-76
2022/05/06 01:04:17;;;;;;;20.17;18.30;;;5.20;99.90;;;;;;4982292;28;20042;-76
2022/05/06 01:06:46;;;;;;;17.75;16.48;;;5.30;99.90;;;;;;4980321;28;20043;-76
2022/05/06 01:09:17;;;;;;;17.77;16.52;;;5.20;99.90;;;;;;4990847;28;20053;-77
2022/05/06 01:11:47;;;;;;;19.45;17.42;;;5.10;99.90;;;;;;4996465;28;20132;-76
2022/05/06 01:14:34;;;;;;;18.15;16.83;;;5.00;99.90;;;;;;5014269;28;20057;-77
2022/05/06 01:17:09;;;;;;;18.10;16.90;;;4.90;99.90;;;;;;5000892;28;20140;-77
2022/05/06 01:19:36;;;;;;;18.85;17.27;;;4.90;99.90;;;;;;5000331;28;20518;-76
2022/05/06 01:22:04;;;;;;;18.02;16.73;;;4.80;99.90;;;;;;5000030;28;20140;-77
2022/05/06 01:24:31;;;;;;;19.30;17.83;;;4.90;99.90;;;;;;5000082;28;20128;-77
2022/05/06 01:27:09;;;;;;;20.30;18.30;;;4.80;99.90;;;;;;4983261;28;20100;-76
2022/05/06 01:29:37;;;;;;;20.08;18.25;;;4.80;99.90;;;;;;5000917;28;20129;-77
2022/05/06 01:32:05;;;;;;;19.83;18.30;;;4.80;99.90;;;;;;4995609;28;20054;-77
2022/05/06 01:34:35;;;;;;;20.13;18.48;;;4.80;99.90;;;;;;4996863;28;20076;-77
2022/05/06 01:37:04;;;;;;;18.35;17.00;;;4.70;99.90;;;;;;4984574;28;20107;-77
2022/05/06 01:39:34;;;;;;;17.75;16.50;;;4.70;99.90;;;;;;5003432;28;20148;-76
2022/05/06 01:42:06;;;;;;;17.90;16.38;;;4.70;99.90;;;;;;4986147;28;20045;-76
2022/05/06 01:44:40;;;;;;;17.98;16.73;;;4.80;99.90;;;;;;5014829;28;20045;-77
2022/05/06 01:47:17;;;;;;;17.20;15.90;;;4.70;99.90;;;;;;5012158;28;20046;-77
2022/05/06 01:49:47;;;;;;;18.45;16.90;;;4.60;99.90;;;;;;5001069;28;20532;-77
2022/05/06 01:52:17;;;;;;;17.90;16.35;;;4.70;99.90;;;;;;4999504;28;20176;-78
2022/05/06 01:54:45;;;;;;;17.80;16.50;;;4.70;99.90;;;;;;5003018;28;20870;-76
2022/05/06 01:57:13;;;;;;;17.58;16.20;;;4.70;99.90;;;;;;4983962;28;20053;-77
2022/05/06 01:59:42;;;;;;;17.15;16.02;;;4.60;99.90;;;;;;5002649;28;20050;-77
2022/05/06 02:02:15;;;;;;;16.88;15.30;;;4.50;99.90;;;;;;5034388;23;20136;-76
2022/05/06 02:07:32;;;;;;;16.38;15.15;;;4.40;99.90;;;;;;5008572;28;20057;-75
2022/05/06 02:09:59;;;;;;;17.92;16.33;;;4.60;99.90;;;;;;5031794;28;20094;-75
2022/05/06 02:12:30;;;;;;;17.95;16.23;;;4.50;99.90;;;;;;5028148;28;20033;-75
2022/05/06 02:15:05;;;;;;;17.63;16.17;;;4.60;99.90;;;;;;5015501;28;20080;-75
2022/05/06 02:18:01;;;;;;;16.88;15.35;;;4.40;99.90;;;;;;4942844;28;20071;-77
2022/05/06 02:20:30;;;;;;;16.40;15.13;;;4.40;99.90;;;;;;5008836;28;20080;-75
2022/05/06 02:22:57;;;;;;;17.20;15.75;;;4.40;99.90;;;;;;5007953;28;20128;-76
2022/05/06 02:25:32;;;;;;;16.20;15.00;;;4.40;99.90;;;;;;5032966;28;20046;-76
2022/05/06 02:28:25;;;;;;;16.95;15.73;;;4.40;99.90;;;;;;5027846;28;20053;-76
2022/05/06 02:33:53;;;;;;;17.90;16.70;;;4.40;99.90;;;;;;5007419;28;20107;-73
2022/05/06 02:36:23;;;;;;;18.08;16.42;;;4.40;99.90;;;;;;5038922;28;20059;-73
2022/05/06 02:38:49;;;;;;;16.75;15.55;;;4.30;99.90;;;;;;5012214;28;20044;-73
2022/05/06 02:41:16;;;;;;;17.52;15.88;;;4.20;99.90;;;;;;5023808;28;20041;-75
2022/05/06 02:43:49;;;;;;;17.55;16.00;;;4.20;99.90;;;;;;5042848;28;20055;-74
2022/05/06 02:46:16;;;;;;;19.00;17.20;;;4.20;99.90;;;;;;5007923;28;20140;-73
2022/05/06 02:48:43;;;;;;;18.80;17.02;;;4.20;99.90;;;;;;5025471;28;20758;-73
2022/05/06 02:51:13;;;;;;;17.17;15.85;;;4.30;99.90;;;;;;4992131;28;20095;-73
2022/05/06 02:53:42;;;;;;;16.80;15.18;;;4.40;99.90;;;;;;5007909;28;20050;-73
2022/05/06 02:56:09;;;;;;;17.33;15.73;;;4.30;99.90;;;;;;5022426;28;20045;-73
2022/05/06 02:58:48;;;;;;;16.20;15.00;;;4.20;99.90;;;;;;5027387;28;20143;-73
2022/05/06 03:01:15;;;;;;;17.25;15.95;;;4.20;99.90;;;;;;5027237;28;20276;-73
2022/05/06 03:03:46;;;;;;;17.20;15.90;;;4.10;99.90;;;;;;5026755;28;20098;-74
2022/05/06 03:06:17;;;;;;;16.85;15.55;;;4.10;99.90;;;;;;5027490;28;20537;-74
2022/05/06 03:08:45;;;;;;;16.80;15.50;;;4.10;99.90;;;;;;5021555;28;20382;-74
2022/05/06 03:11:16;;;;;;;16.38;14.95;;;4.30;99.90;;;;;;5027949;28;20132;-75
2022/05/06 03:13:50;;;;;;;17.02;15.57;;;4.30;99.90;;;;;;5026437;28;20053;-75
2022/05/06 03:16:20;;;;;;;16.63;15.18;;;4.10;99.90;;;;;;5024639;28;20053;-75
2022/05/06 03:18:48;;;;;;;19.15;15.18;;;4.00;99.90;;;;;;4998593;28;20057;-74
2022/05/06 03:21:15;;;;;;;16.70;15.10;;;4.10;99.90;;;;;;5026400;28;20497;-75
2022/05/06 03:23:43;;;;;;;17.27;15.88;;;4.00;99.90;;;;;;5024516;28;20819;-74
2022/05/06 03:26:10;;;;;;;16.80;15.43;;;4.00;99.90;;;;;;5039558;28;20041;-75
2022/05/06 03:28:37;;;;;;;16.65;15.27;;;4.10;99.90;;;;;;5040919;28;20106;-75
2022/05/06 03:31:05;;;;;;;18.42;15.70;;;4.20;99.90;;;;;;5044671;28;20140;-75
2022/05/06 03:33:37;;;;;;;16.63;15.23;;;4.30;99.90;;;;;;5026599;28;20053;-75
2022/05/06 03:36:15;;;;;;;16.55;15.05;;;4.10;99.90;;;;;;5027072;28;20502;-74
2022/05/06 03:39:03;;;;;;;15.90;14.43;;;4.20;99.90;;;;;;5030829;28;20068;-75
2022/05/06 03:41:36;;;;;;;15.90;14.50;;;4.10;99.90;;;;;;5039907;28;20036;-75
2022/05/06 03:44:03;;;;;;;17.05;15.70;;;3.90;99.90;;;;;;5026960;28;20560;-75
2022/05/06 03:46:30;;;;;;;16.15;14.85;;;3.90;99.90;;;;;;5023759;28;20481;-75
2022/05/06 03:48:59;;;;;;;16.73;15.43;;;3.80;99.90;;;;;;5025721;28;20045;-75
2022/05/06 03:51:27;;;;;;;18.13;16.58;;;3.70;99.90;;;;;;5008864;28;20072;-76
2022/05/06 03:54:03;;;;;;;17.58;16.08;;;3.70;99.90;;;;;;5024329;28;20400;-75
2022/05/06 03:56:32;;;;;;;17.00;15.70;;;3.70;99.90;;;;;;5034023;28;20094;-75
2022/05/06 03:59:03;;;;;;;16.83;15.50;;;3.70;99.90;;;;;;5006638;28;20132;-75
2022/05/06 04:01:31;;;;;;;18.55;17.20;;;3.70;99.90;;;;;;5006147;28;20052;-75
2022/05/06 04:03:59;;;;;;;19.25;17.70;;;3.70;99.90;;;;;;5006227;28;20064;-75
2022/05/06 04:06:31;;;;;;;18.38;17.02;;;3.70;99.90;;;;;;5006653;28;20076;-75
2022/05/06 04:08:58;;;;;;;19.85;17.85;;;3.60;99.90;;;;;;5027150;28;20887;-75
2022/05/06 04:11:28;;;;;;;19.23;17.92;;;3.60;99.90;;;;;;5039349;28;20037;-75
2022/05/06 04:14:00;;;;;;;19.08;17.45;;;3.60;99.90;;;;;;5008905;28;20526;-75
2022/05/06 04:16:29;;;;;;;19.13;17.63;;;3.50;99.90;;;;;;5025923;28;20048;-75
2022/05/06 04:18:59;;;;;;;18.52;17.02;;;3.50;99.90;;;;;;5034911;28;20452;-75
2022/05/06 04:24:14;;;;;;;17.98;16.58;;;3.80;99.90;;;;;;5014025;28;20811;-74
2022/05/06 04:26:41;;;;;;;18.75;17.15;;;3.80;99.90;;;;;;5023336;28;20041;-75
2022/05/06 04:29:08;;;;;;;18.50;16.98;;;3.80;99.90;;;;;;5006673;28;20136;-75
2022/05/06 04:31:35;;;;;;;19.92;17.42;;;3.90;99.90;;;;;;5022170;28;20057;-75
2022/05/06 04:34:08;;;;;;;18.75;16.95;;;4.10;99.90;;;;;;5006643;28;20091;-75
2022/05/06 04:36:39;;;;;;;19.00;16.95;;;4.00;99.90;;;;;;5005732;28;20095;-75
2022/05/06 04:39:07;;;;;;;22.48;16.17;;;4.00;99.90;;;;;;5028422;28;20254;-75
2022/05/06 04:41:41;;;;;;;16.30;14.93;;;4.00;99.90;;;;;;5043654;28;20078;-75
2022/05/06 04:44:09;;;;;;;17.83;16.20;;;4.10;99.90;;;;;;5024997;28;20049;-75
2022/05/06 04:46:36;;;;;;;16.65;15.25;;;4.10;99.90;;;;;;5025156;28;20746;-75
2022/05/06 04:49:03;;;;;;;18.88;17.00;;;4.10;99.90;;;;;;5009453;28;20057;-76
2022/05/06 04:51:31;;;;;;;17.73;16.00;;;4.20;99.90;;;;;;5008417;28;20052;-76
2022/05/06 04:53:58;;;;;;;19.05;17.55;;;4.20;99.90;;;;;;5008733;28;20136;-75
2022/05/06 04:56:25;;;;;;;17.52;16.02;;;4.20;99.90;;;;;;5033730;28;20603;-75
2022/05/06 04:59:00;;;;;;;18.33;16.67;;;4.40;99.90;;;;;;5021618;28;20060;-76
2022/05/06 05:01:39;;;;;;;18.30;16.88;;;4.60;99.90;;;;;;5022564;28;20229;-75
2022/05/06 05:04:06;;;;;;;18.35;16.65;;;4.70;99.90;;;;;;5008666;28;20089;-76
2022/05/06 05:06:35;;;;;;;18.02;16.33;;;4.80;99.90;;;;;;5021798;28;20066;-75
2022/05/06 05:09:06;;;;;;;16.23;15.02;;;4.90;99.90;;;;;;5014583;28;20540;-76
2022/05/06 05:11:34;;;;;;;17.30;15.73;;;5.00;99.90;;;;;;5033903;28;20041;-76
2022/05/06 05:14:08;;;;;;;17.67;15.82;;;5.10;99.90;;;;;;5006475;28;20076;-76
2022/05/06 05:16:38;;;;;;;17.60;16.15;;;5.10;99.90;;;;;;5024518;28;20039;-76
2022/05/06 05:19:06;;;;;;;18.30;15.82;;;5.20;99.90;;;;;;5008763;28;20041;-76
2022/05/06 05:21:38;;;;;;;18.67;16.95;;;5.30;99.90;;;;;;5009048;28;20607;-76
2022/05/06 05:24:05;;;;;;;18.35;16.33;;;5.50;99.90;;;;;;5024977;28;20045;-76
2022/05/06 05:26:34;;;;;;;18.90;17.17;;;5.70;99.90;;;;;;5020216;28;20041;-76
2022/05/06 05:29:02;;;;;;;18.85;17.15;;;5.80;99.90;;;;;;5004396;28;20045;-76
2022/05/06 05:31:30;;;;;;;18.65;17.13;;;6.00;99.90;;;;;;5012789;28;20053;-77
2022/05/06 05:33:57;;;;;;;18.75;17.10;;;6.00;99.90;;;;;;5024709;28;20145;-76
2022/05/06 05:36:25;;;;;;;17.73;16.23;;;6.10;99.90;;;;;;5027709;28;20041;-76
2022/05/06 05:38:53;;;;;;;17.65;16.40;;;6.20;99.90;;;;;;5029337;28;20051;-76
2022/05/06 05:41:20;;;;;;;20.42;17.58;;;6.30;99.90;;;;;;5032545;28;20150;-76
2022/05/06 05:49:21;;;;;;;18.75;17.27;;;6.60;99.90;;;;;;5008760;28;20049;-76
2022/05/06 05:51:48;;;;;;;19.20;17.40;;;6.80;99.90;;;;;;5012474;28;20087;-76
2022/05/06 05:54:15;;;;;;;18.40;16.63;;;7.00;99.90;;;;;;5026819;28;20084;-76
2022/05/06 05:56:46;;;;;;;18.10;16.60;;;7.10;99.90;;;;;;5021707;28;20041;-76
2022/05/06 05:59:14;;;;;;;18.25;16.58;;;7.30;99.90;;;;;;5008302;28;20068;-76
2022/05/06 06:01:41;;;;;;;19.55;17.95;;;7.60;99.90;;;;;;5010356;28;20045;-76
2022/05/06 06:04:10;;;;;;;19.85;18.08;;;7.80;99.90;;;;;;5007556;28;20525;-76
2022/05/06 06:06:42;;;;;;;18.50;16.98;;;8.10;99.90;;;;;;5007575;28;20542;-76
2022/05/06 06:09:10;;;;;;;19.40;17.80;;;8.30;99.90;;;;;;5017529;28;20060;-76
2022/05/06 06:11:38;;;;;;;21.80;20.27;;;8.70;99.90;;;;;;5027054;28;20445;-76
2022/05/06 06:14:07;;;;;;;24.77;23.08;;;9.30;99.90;;;;;;5023127;28;20052;-76
2022/05/06 06:16:33;;;;;;;26.65;24.67;;;9.90;99.90;;;;;;5027787;28;20048;-77
2022/05/06 06:19:01;;;;;;;26.92;25.20;;;10.40;99.90;;;;;;5027804;28;20398;-76
2022/05/06 06:21:33;;;;;;;27.40;25.17;;;10.90;99.90;;;;;;5026723;28;20496;-77
2022/05/06 06:24:00;;;;;;;26.25;24.30;;;11.70;99.90;;;;;;5026426;28;20054;-76
2022/05/06 06:26:27;;;;;;;25.77;23.85;;;12.30;99.90;;;;;;5026556;28;20057;-76
2022/05/06 06:28:57;;;;;;;25.95;23.98;;;13.00;99.90;;;;;;5043868;28;20086;-76
2022/05/06 06:31:24;;;;;;;25.83;23.90;;;13.80;99.90;;;;;;5026711;28;20053;-75
2022/05/06 06:33:52;;;;;;;26.45;24.35;;;14.70;99.90;;;;;;5023772;28;20076;-75
2022/05/06 06:36:27;;;;;;;26.00;24.10;;;15.00;99.90;;;;;;5022431;28;20648;-76
2022/05/06 06:38:54;;;;;;;26.65;24.83;;;15.20;99.90;;;;;;5015107;28;20067;-76
2022/05/06 06:41:22;;;;;;;28.15;26.30;;;15.50;99.90;;;;;;5035578;28;20040;-75
2022/05/06 06:43:49;;;;;;;26.83;25.13;;;15.70;99.90;;;;;;5026029;28;20099;-76
2022/05/06 06:46:26;;;;;;;28.42;26.42;;;15.80;99.90;;;;;;5026971;28;20052;-76
2022/05/06 06:49:21;;;;;;;28.95;26.70;;;16.10;99.90;;;;;;5027775;28;20142;-76
2022/05/06 06:52:14;;;;;;;29.05;26.85;;;16.40;99.90;;;;;;5013821;28;20732;-75
2022/05/06 06:54:41;;;;;;;29.08;26.85;;;16.60;99.90;;;;;;5041629;28;20045;-76
2022/05/06 06:57:08;;;;;;;29.85;27.58;;;16.90;99.90;;;;;;5044839;28;20045;-76
2022/05/06 06:59:35;;;;;;;29.08;27.00;;;17.20;99.90;;;;;;5028853;28;20053;-76
2022/05/06 07:02:02;;;;;;;36.67;33.40;;;17.40;99.90;;;;;;5027926;28;20056;-76
2022/05/06 07:04:28;;;;;;;31.35;29.20;;;17.50;99.90;;;;;;5032511;28;20048;-76
2022/05/06 07:12:26;;;;;;;29.83;27.73;;;17.70;99.90;;;;;;5040973;28;20048;-76
2022/05/06 07:14:55;;;;;;;29.70;27.80;;;17.80;99.90;;;;;;5025401;28;20053;-75
2022/05/06 07:17:21;;;;;;;28.83;26.65;;;17.90;99.90;;;;;;5028533;28;20107;-75
2022/05/06 07:19:49;;;;;;;28.15;26.30;;;17.90;99.90;;;;;;5046311;28;20337;-75
2022/05/06 07:22:16;;;;;;;28.95;27.15;;;18.10;99.90;;;;;;5027706;28;20041;-75
2022/05/06 07:24:53;;;;;;;28.50;26.60;;;18.40;99.90;;;;;;5024442;28;20581;-75
2022/05/06 07:27:21;;;;;;;28.88;27.00;;;18.70;99.90;;;;;;5026692;28;20045;-75
2022/05/06 07:29:48;;;;;;;28.88;26.92;;;19.00;99.90;;;;;;5045854;28;20098;-74
2022/05/06 07:32:14;;;;;;;28.90;27.00;;;19.00;99.90;;;;;;5042379;28;20104;-75
2022/05/06 07:34:41;;;;;;;28.15;26.35;;;18.80;99.90;;;;;;5025989;28;20034;-74
2022/05/06 07:37:08;;;;;;;28.38;26.42;;;18.80;99.90;;;;;;5008903;28;20425;-76
2022/05/06 07:39:35;;;;;;;28.60;26.58;;;18.80;99.90;;;;;;5040198;28;20503;-76
2022/05/06 07:42:02;;;;;;;29.20;27.38;;;19.10;99.90;;;;;;5033994;28;20072;-74
2022/05/06 07:44:28;;;;;;;28.95;27.05;;;19.10;99.90;;;;;;5037076;28;20143;-75
2022/05/06 07:46:55;;;;;;;28.95;26.92;;;19.10;99.90;;;;;;5017245;28;20081;-75
2022/05/06 07:49:23;;;;;;;29.08;27.17;;;19.00;99.90;;;;;;5008668;28;20087;-75
2022/05/06 07:51:50;;;;;;;29.30;27.33;;;19.20;99.90;;;;;;5034195;28;20130;-75
2022/05/06 07:54:17;;;;;;;29.48;27.52;;;19.20;99.90;;;;;;5026839;28;20042;-75
2022/05/06 07:56:44;;;;;;;28.58;26.88;;;19.20;99.90;;;;;;5013517;28;20056;-75
2022/05/06 07:59:11;;;;;;;31.05;28.83;;;19.20;99.90;;;;;;5015217;28;20052;-76
2022/05/06 08:04:34;;;;;;;28.77;26.98;;;19.60;99.90;;;;;;5041912;28;20049;-76
2022/05/06 08:07:01;;;;;;;29.58;27.65;;;19.90;99.90;;;;;;5026104;28;20056;-75
2022/05/06 08:09:28;;;;;;;30.65;28.30;;;19.80;99.90;;;;;;5045429;28;20079;-76
2022/05/06 08:11:55;;;;;;;31.02;28.63;;;20.00;99.90;;;;;;5016936;28;20099;-75
2022/05/06 08:14:22;;;;;;;28.77;26.73;;;20.10;99.90;;;;;;5040442;28;20052;-77
2022/05/06 08:16:50;;;;;;;30.05;28.05;;;20.20;99.90;;;;;;5026360;28;20056;-74
2022/05/06 08:19:18;;;;;;;30.35;28.33;;;20.00;99.90;;;;;;5044036;28;20064;-75
2022/05/06 08:21:49;;;;;;;29.83;27.92;;;20.00;99.90;;;;;;5025569;28;20094;-75
2022/05/06 08:24:16;;;;;;;30.90;28.73;;;19.90;99.90;;;;;;5021797;28;20541;-75
2022/05/06 08:26:44;;;;;;;30.10;28.20;;;19.80;99.90;;;;;;5042284;28;20045;-75
2022/05/06 08:29:11;;;;;;;28.92;27.13;;;19.70;99.90;;;;;;5045106;28;20065;-75
2022/05/06 08:31:37;;;;;;;30.52;28.40;;;19.60;99.90;;;;;;5041353;28;20465;-75
2022/05/06 08:34:09;;;;;;;30.63;28.65;;;19.60;99.90;;;;;;5025116;28;20052;-76
2022/05/06 08:36:37;;;;;;;30.70;28.80;;;19.70;99.80;;;;;;5006896;28;20669;-76
2022/05/06 08:39:06;;;;;;;30.75;28.75;;;20.00;99.90;;;;;;5029959;28;20048;-77
2022/05/06 08:41:33;;;;;;;31.42;29.50;;;20.20;99.40;;;;;;5039316;28;20119;-77
2022/05/06 08:50:50;;;;;;;32.80;30.67;;;20.30;99.90;;;;;;5040255;28;20730;-76
2022/05/06 08:52:41;;;;;;;32.60;30.30;;;20.60;99.90;;;;;;5044699;28;20437;-76
2022/05/06 08:55:08;;;;;;;31.85;29.75;;;20.80;99.50;;;;;;5022316;28;20115;-76
2022/05/06 08:57:36;;;;;;;31.85;29.35;;;20.70;99.70;;;;;;5027042;28;20143;-73
2022/05/06 09:00:04;;;;;;;33.33;31.05;;;20.70;98.00;;;;;;5043367;28;20041;-75
2022/05/06 09:02:31;;;;;;;32.33;29.88;;;20.60;96.50;;;;;;5043314;28;20053;-75
2022/05/06 09:04:58;;;;;;;31.15;29.05;;;20.70;96.60;;;;;;5044146;28;20041;-76
2022/05/06 09:07:25;;;;;;;32.45;30.20;;;20.70;96.60;;;;;;5042937;28;20049;-76
2022/05/06 09:10:12;;;;;;;33.10;30.70;;;20.80;96.30;;;;;;5050492;28;20052;-77
2022/05/06 09:12:46;;;;;;;34.15;31.42;;;21.00;97.60;;;;;;5050357;28;20417;-76
2022/05/06 09:18:02;;;;;;;33.42;31.23;;;20.80;96.30;;;;;;5042993;28;20053;-76
2022/05/06 09:20:29;;;;;;;32.10;29.85;;;20.80;96.50;;;;;;5041655;28;20040;-77
2022/05/06 09:22:57;;;;;;;32.63;30.23;;;20.80;95.00;;;;;;5042432;28;20048;-77
2022/05/06 09:25:45;;;;;;;34.28;31.85;;;21.10;96.20;;;;;;5025774;28;20118;-76
2022/05/06 09:28:33;;;;;;;34.03;31.45;;;21.50;95.90;;;;;;5025803;28;20098;-76
2022/05/06 09:31:06;;;;;;;36.15;33.63;;;21.30;95.70;;;;;;5044451;28;20061;-75
2022/05/06 09:33:40;;;;;;;34.92;32.63;;;21.20;94.40;;;;;;5044614;28;20049;-76
2022/05/06 09:36:23;;;;;;;33.92;31.67;;;21.00;94.70;;;;;;5025190;28;20763;-78
2022/05/06 09:39:10;;;;;;;35.15;32.60;;;21.20;96.60;;;;;;5014408;28;20080;-76
2022/05/06 09:41:39;;;;;;;38.10;35.13;;;21.40;93.70;;;;;;5040141;28;20094;-76
2022/05/06 09:44:10;;;;;;;36.42;34.03;;;20.80;93.50;;;;;;5043329;28;20041;-78
2022/05/06 09:46:36;;;;;;;36.28;33.72;;;19.20;95.70;;;;;;5043417;28;20210;-76
2022/05/06 09:49:04;;;;;;;37.30;34.70;;;19.00;95.50;;;;;;5034170;28;20033;-75
2022/05/06 09:51:51;;;;;;;37.60;35.20;;;19.90;96.20;;;;;;5024191;28;20135;-74
2022/05/06 09:54:31;;;;;;;37.30;34.85;;;21.00;94.90;;;;;;5007851;28;20087;-78
2022/05/06 09:56:59;;;;;;;37.60;35.05;;;21.40;96.70;;;;;;5034845;28;20099;-77
2022/05/06 09:59:27;;;;;;;37.75;35.03;;;21.40;94.60;;;;;;5029083;28;20049;-77
2022/05/06 10:01:54;;;;;;;36.05;33.42;;;21.10;95.30;;;;;;5043765;28;20045;-76
2022/05/06 10:04:21;;;;;;;36.83;34.35;;;21.20;95.90;;;;;;5044078;28;20037;-77
2022/05/06 10:06:49;;;;;;;36.40;34.10;;;21.50;95.10;;;;;;5044284;28;20045;-76
2022/05/06 10:09:21;;;;;;;37.40;34.90;;;21.70;94.60;;;;;;5028563;28;20037;-76
2022/05/06 10:11:51;;;;;;;36.88;34.20;;;21.80;92.60;;;;;;5042043;28;20134;-76
2022/05/06 10:14:19;;;;;;;36.15;33.72;;;21.60;93.50;;;;;;5047172;28;20519;-77
2022/05/06 10:16:47;;;;;;;38.55;35.72;;;21.60;94.90;;;;;;5029259;28;20049;-76
2022/05/06 10:19:26;;;;;;;37.30;35.10;;;21.60;93.00;;;;;;5041485;28;20132;-78
2022/05/06 10:21:58;;;;;;;36.17;33.97;;;22.00;93.20;;;;;;5028525;28;20047;-78
2022/05/06 10:24:36;;;;;;;37.63;35.33;;;22.30;94.00;;;;;;5046333;28;20110;-76
2022/05/06 10:33:19;;;;;;;35.75;33.33;;;22.00;92.60;;;;;;5027764;28;20057;-76
2022/05/06 10:35:47;;;;;;;35.38;32.90;;;21.90;93.30;;;;;;5009376;28;20092;-77
2022/05/06 10:38:25;;;;;;;35.35;32.75;;;21.70;92.80;;;;;;5027288;28;20471;-76
2022/05/06 10:41:02;;;;;;;36.40;34.03;;;21.50;91.90;;;;;;5054095;28;20037;-77
2022/05/06 10:43:48;;;;;;;36.20;33.95;;;21.50;94.00;;;;;;5028321;28;20118;-75
2022/05/06 10:46:35;;;;;;;33.75;31.42;;;21.30;92.40;;;;;;5034754;28;20578;-77
2022/05/06 10:49:42;;;;;;;35.75;33.40;;;21.30;92.80;;;;;;5041367;28;20861;-78
2022/05/06 10:52:15;;;;;;;35.33;33.13;;;21.50;91.70;;;;;;4996554;28;20118;-75
2022/05/06 10:54:47;;;;;;;36.85;34.40;;;21.60;91.00;;;;;;5008366;28;20096;-78
2022/05/06 10:57:15;;;;;;;36.00;33.55;;;21.70;91.20;;;;;;5025197;28;20045;-77
2022/05/06 10:59:53;;;;;;;34.58;32.08;;;21.70;93.80;;;;;;5025960;28;20451;-75
2022/05/06 11:02:27;;;;;;;35.70;33.20;;;21.60;91.70;;;;;;5009125;28;20649;-74
2022/05/06 11:05:00;;;;;;;34.92;32.80;;;21.60;92.70;;;;;;5026237;28;20053;-75
2022/05/06 11:07:30;;;;;;;35.90;33.58;;;21.50;92.00;;;;;;5025448;28;20045;-76
2022/05/06 11:09:56;;;;;;;34.45;32.35;;;21.90;92.00;;;;;;5023004;28;20525;-76
2022/05/06 11:12:44;;;;;;;35.08;33.03;;;22.10;91.70;;;;;;5048792;28;20037;-77
2022/05/06 11:15:15;;;;;;;35.42;32.80;;;22.20;90.20;;;;;;5040282;28;20057;-77
2022/05/06 11:17:43;;;;;;;36.45;33.78;;;22.20;91.70;;;;;;5036011;28;20057;-75
2022/05/06 11:20:23;;;;;;;34.42;32.42;;;22.20;91.30;;;;;;5008899;28;20136;-76
2022/05/06 11:22:54;;;;;;;35.75;33.50;;;22.30;90.60;;;;;;5025612;28;20046;-77
2022/05/06 11:25:22;;;;;;;36.15;33.85;;;22.00;90.90;;;;;;5006525;28;20049;-76
2022/05/06 11:27:53;;;;;;;34.55;32.65;;;21.90;89.80;;;;;;5009758;28;20053;-76
2022/05/06 11:30:21;;;;;;;34.22;32.22;;;21.90;88.70;;;;;;5026195;28;20053;-75
2022/05/06 11:33:03;;;;;;;33.42;31.35;;;21.70;88.00;;;;;;5027619;28;20398;-75
2022/05/06 11:35:40;;;;;;;35.50;33.03;;;21.80;90.20;;;;;;5026721;28;20449;-76
2022/05/06 11:38:06;;;;;;;35.80;33.70;;;21.80;89.70;;;;;;5042027;28;20057;-76
2022/05/06 11:40:37;;;;;;;34.78;32.72;;;21.70;87.20;;;;;;5031966;28;20049;-75
2022/05/06 11:43:18;;;;;;;36.33;34.20;;;22.00;91.60;;;;;;5011677;28;20095;-76
2022/05/06 11:48:39;;;;;;;36.08;33.97;;;22.90;90.70;;;;;;5047122;28;20060;-78
2022/05/06 11:51:19;;;;;;;36.75;34.55;;;22.90;88.90;;;;;;5027267;28;20063;-77
2022/05/06 11:53:47;;;;;;;37.90;35.45;;;22.30;89.60;;;;;;5027088;28;20469;-75
2022/05/06 11:56:24;;;;;;;39.33;36.92;;;22.10;90.90;;;;;;5045526;28;20041;-75
2022/05/06 11:58:55;;;;;;;38.75;36.40;;;22.40;90.30;;;;;;5027932;28;20087;-74
2022/05/06 12:01:30;;;;;;;40.72;38.22;;;22.50;91.20;;;;;;5039554;28;20045;-75
2022/05/06 12:04:01;;;;;;;;;;;22.70;91.40;;;;;;5024419;28;20049;-73
2022/05/06 12:06:40;;;;;;;37.90;35.45;;;22.50;88.70;;;;;;5024861;28;20460;-74
2022/05/06 12:09:18;;;;;;;37.30;34.97;;;22.30;88.60;;;;;;5033235;28;20055;-74
2022/05/06 12:11:45;;;;;;;42.15;39.45;;;22.40;91.00;;;;;;5044859;28;20067;-75
2022/05/06 12:14:17;;;;;;;39.70;37.25;;;22.50;91.80;;;;;;5028323;28;20114;-75
2022/05/06 12:16:58;;;;;;;40.22;37.80;;;22.60;91.40;;;;;;5045871;28;20045;-75
2022/05/06 12:19:35;;;;;;;38.25;36.15;;;22.50;91.10;;;;;;5044807;28;20072;-75
2022/05/06 12:22:09;;;;;;;37.47;35.28;;;22.50;91.40;;;;;;5028330;28;20037;-77
2022/05/06 12:24:56;;;;;;;39.03;36.83;;;22.60;89.80;;;;;;5044946;28;20045;-74
2022/05/06 12:27:33;;;;;;;39.35;37.05;;;22.50;90.00;;;;;;5024068;28;20045;-77
2022/05/06 12:30:01;;;;;;;39.42;36.85;;;22.80;90.30;;;;;;5026729;28;20072;-74
2022/05/06 12:32:29;;;;;;;37.72;35.60;;;22.90;89.50;;;;;;5024783;28;20140;-77
2022/05/06 12:35:10;;;;;;;40.47;38.08;;;23.00;90.30;;;;;;5008243;28;20049;-75
2022/05/06 12:37:53;;;;;;;40.10;37.33;;;23.00;83.80;;;;;;5025749;28;20057;-75
2022/05/06 12:40:20;;;;;;;41.22;38.83;;;22.50;86.10;;;;;;5045021;28;20045;-75
2022/05/06 12:43:08;;;;;;;39.92;37.60;;;22.60;90.50;;;;;;5030307;28;20045;-76
2022/05/06 12:45:36;;;;;;;40.15;37.60;;;22.60;90.10;;;;;;5032686;28;20041;-77
2022/05/06 12:50:48;;;;;;;40.10;37.10;;;22.50;90.40;;;;;;5026600;28;20577;-76
2022/05/06 12:53:15;;;;;;;41.10;38.60;;;22.50;91.00;;;;;;5025137;28;20517;-77
2022/05/06 12:55:42;;;;;;;41.03;38.55;;;22.40;86.90;;;;;;5007376;28;20088;-77
2022/05/06 12:58:10;;;;;;;40.92;38.63;;;22.50;91.10;;;;;;5024460;28;20077;-77
2022/05/06 13:00:37;;;;;;;41.92;39.33;;;22.60;86.80;;;;;;5006702;28;20041;-76
2022/05/06 13:03:04;;;;;;;40.08;37.78;;;22.80;90.30;;;;;;5025552;28;20081;-76
2022/05/06 13:05:32;;;;;;;40.17;37.95;;;22.70;86.10;;;;;;5032551;28;20088;-77
2022/05/06 13:08:04;;;;;;;38.42;36.03;;;22.80;89.20;;;;;;5027778;28;20060;-77
2022/05/06 13:10:31;;;;;;;39.25;36.85;;;22.30;86.50;;;;;;5043528;28;20041;-76
2022/05/06 13:12:59;;;;;;;41.55;39.03;;;22.10;88.60;;;;;;5047403;28;20079;-76
2022/05/06 13:15:26;;;;;;;40.30;37.92;;;21.90;88.10;;;;;;5037414;28;20110;-76
2022/05/06 13:17:52;;;;;;;40.40;37.88;;;22.00;90.60;;;;;;5044574;28;20057;-77
2022/05/06 13:20:20;;;;;;;40.28;37.88;;;22.10;90.60;;;;;;5035841;28;20049;-76
2022/05/06 13:22:46;;;;;;;40.42;38.03;;;22.30;88.80;;;;;;5024688;28;20230;-76
2022/05/06 13:25:13;;;;;;;39.38;37.08;;;22.60;86.50;;;;;;5004344;28;20752;-78
2022/05/06 13:27:40;;;;;;;37.83;35.70;;;22.90;90.30;;;;;;5008022;28;20042;-78
2022/05/06 13:30:08;;;;;;;38.58;35.92;;;22.80;89.90;;;;;;5009038;28;20110;-77
2022/05/06 13:32:35;;;;;;;37.10;34.90;;;22.60;89.80;;;;;;5030494;28;20090;-76